Flight Track Log - Related Links

Times and Time Zones

All times are in EDT time to prevent confusion due to time zone crossing. See the CHQ6401 flight status page for this flight to view local times or setup timezone preferences in your user account.

Time Position Orientation Groundspeed Altitude Reporting Facility
EDT Latitude Longitude Course Direction KTS MPH feet Rate Location/Type
Wed 02:33:39 PM 42.1994 -83.3581 82° East 159 183 1,300  Level Cleveland Center
Wed 02:34:46 PM 42.1431 -83.3583 180° South 200 230 3,600 1,721 Climbing Cleveland Center
Wed 02:35:48 PM 42.0917 -83.3283 157° South 256 295 5,000 1,525 Climbing Cleveland Center
Wed 02:36:00 PM 42.2839 -82.9140 75° East  Level FlightAware Approximate
Wed 02:36:48 PM 42.0669 -83.2292 109° East 290 334 6,700  Level Cleveland Center
Wed 02:37:00 PM 42.3129 -82.7688 75° East  Level FlightAware Approximate
Wed 02:37:50 PM 42.1047 -83.1300 63° Northeast 281 323 8,800  Level Cleveland Center
Wed 02:38:00 PM 42.3297 -82.6202 82° East  Level FlightAware Approximate
Wed 02:38:55 PM 42.1403 -83.0278 65° Northeast 325 374 10,000  Level Cleveland Center
Wed 02:39:55 PM 42.1844 -82.9147 62° Northeast 336 387 11,200 1,300 Climbing Cleveland Center
Wed 02:40:55 PM 42.2325 -82.7958 61° Northeast 341 392 12,600 1,450 Climbing Cleveland Center
Wed 02:41:55 PM 42.2806 -82.6739 62° Northeast 352 405 14,100 1,450 Climbing Cleveland Center
Wed 02:42:55 PM 42.3308 -82.5436 62° Northeast 370 426 15,500 1,388 Climbing Cleveland Center
Wed 02:43:56 PM 42.3686 -82.4156 68° East 370 426 16,900 1,300 Climbing Cleveland Center
Wed 02:44:55 PM 42.3667 -82.2664 91° East 370 426 18,100 1,261 Climbing Cleveland Center
Wed 02:45:55 PM 42.3753 -82.0981 86° East 393 452 19,400 1,050 Climbing Cleveland Center
Wed 02:46:55 PM 42.3833 -81.9408 86° East 411 473 20,200 800 Climbing Cleveland Center
Wed 02:47:55 PM 42.3914 -81.7753 86° East 433 498 21,000 800 Climbing Cleveland Center
Wed 02:48:55 PM 42.3994 -81.6067 86° East 448 516 21,800 800 Climbing Cleveland Center
Wed 02:49:55 PM 42.4236 -81.4608 77° East 453 521 22,600 900 Climbing Cleveland Center
Wed 02:50:55 PM 42.4642 -81.2953 72° East 448 516 23,600 1,050 Climbing Cleveland Center
Wed 02:51:55 PM 42.4756 -81.1236 85° East 453 521 24,700 1,050 Climbing Cleveland Center
Wed 02:52:55 PM 42.4783 -80.9492 89° East 458 527 25,700 1,050 Climbing Cleveland Center
Wed 02:53:55 PM 42.4808 -80.7775 89° East 465 535 26,800 650 Climbing Cleveland Center
Wed 02:54:55 PM 42.4853 -80.5803 88° East 471 542 27,000 100 Climbing Cleveland Center
Wed 02:55:55 PM 42.5142 -80.3972 78° East 476 548 27,000  Level Cleveland Center
Wed 02:56:55 PM 42.5492 -80.2167 75° East 489 563 27,000  Level Cleveland Center
Wed 02:57:55 PM 42.5797 -80.0306 77° East 495 570 27,000 -150 Level Cleveland Center
Wed 02:58:55 PM 42.6161 -79.8411 75° East 505 581 26,700 -600 Descending Cleveland Center
Wed 02:59:55 PM 42.6483 -79.6517 77° East 511 588 25,800 -850 Descending Cleveland Center
Wed 03:00:55 PM 42.6778 -79.4647 78° East 511 588 25,000 -400 Descending Cleveland Center
Wed 03:01:55 PM 42.7050 -79.2836 78° East 506 582 25,000  Level Cleveland Center
Wed 03:02:55 PM 42.7322 -79.1133 78° East 477 549 25,000  Level Cleveland Center
Wed 03:03:55 PM 42.7614 -78.9458 77° East 462 532 25,000  Level Cleveland Center
Wed 03:04:55 PM 42.7858 -78.7783 79° East 451 519 25,000  Level Cleveland Center
Wed 03:05:55 PM 42.8144 -78.6078 77° East 451 519 25,000  Level Cleveland Center
Wed 03:06:55 PM 42.8403 -78.4314 79° East 451 519 25,000  Level Cleveland Center
Wed 03:07:55 PM 42.8683 -78.2547 78° East 461 531 25,000  Level Cleveland Center
Wed 03:08:55 PM 42.8936 -78.0750 79° East 473 544 25,000  Level Cleveland Center
Wed 03:09:55 PM 42.9189 -77.8956 79° East 473 544 25,000 -397 Level Cleveland Center
Wed 03:10:56 PM 42.9458 -77.7242 78° East 468 539 24,200 -900 Descending Cleveland Center
Wed 03:11:55 PM 42.9706 -77.5497 79° East 468 539 23,200 -1,311 Descending Cleveland Center
Wed 03:12:55 PM 42.9972 -77.3725 78° East 468 539 21,600 -1,800 Descending Cleveland Center
Wed 03:13:55 PM 43.0214 -77.2036 79° East 468 539 19,600 -1,987 Descending Cleveland Center
Wed 03:15:32 PM 43.0597 -76.9392 79° East 435 501 16,400 -1,975 Descending Boston Center
Wed 03:16:33 PM 43.0825 -76.7817 79° East 428 493 14,400 -1,967 Descending Boston Center
Wed 03:17:34 PM 43.1028 -76.6322 79° East 399 459 12,400 -1,884 Descending Boston Center
Wed 03:18:34 PM 43.1228 -76.4858 79° East 351 404 10,600 -1,339 Descending Boston Center
Wed 03:19:35 PM 43.1392 -76.3700 79° East 297 342 9,700 -787 Descending Boston Center
Wed 03:20:36 PM 43.1533 -76.2656 79° East 274 315 9,000 -694 Descending Boston Center
Wed 03:21:36 PM 43.1631 -76.1581 83° East 276 318 8,300 -1,289 Descending Boston Center
Wed 03:22:37 PM 43.1769 -76.0536 80° East 271 312 6,400 -1,623 Descending Boston Center
Wed 03:23:38 PM 43.1881 -75.9572 81° East 251 289 5,000 -1,438 Descending Boston Center
Wed 03:24:38 PM 43.1781 -75.8742 99° East 237 273 3,500 -1,500 Descending Boston Center

Login

Don't have an account? Register now (free) for customized features, flight alerts, and more!